Time;durP1;ratioP1;P1;durP2;ratioP2;P2;SDS_P1;SDS_P2;PMS_P1;PMS_P2;Temp;Humidity;BMP_temperature;BMP_pressure;BME280_temperature;BME280_humidity;BME280_pressure;Samples;Min_cycle;Max_cycle;Signal;HPM_P1;HPM_P2
2023/02/15 00:00:16;;;;;;;29.23;19.70;;;;;;;2.25;100.00;102128.06;698137;28;1024;-64
2023/02/15 00:00:36;;;;;;;28.13;20.08;;;;;;;2.22;100.00;102127.91;698063;28;1392;-65
2023/02/15 00:01:07;;;;;;;27.63;19.90;;;;;;;2.24;100.00;102126.25;694563;28;4276;-65
2023/02/15 00:01:28;;;;;;;28.73;20.13;;;;;;;2.26;100.00;102118.59;697375;28;1659;-64
2023/02/15 00:01:49;;;;;;;28.38;19.95;;;;;;;2.28;100.00;102122.16;696160;28;1365;-65
2023/02/15 00:02:09;;;;;;;28.67;19.57;;;;;;;2.30;100.00;102116.28;697851;28;1404;-64
2023/02/15 00:02:29;;;;;;;27.90;19.52;;;;;;;2.28;100.00;102119.59;694284;28;1134;-65
2023/02/15 00:02:50;;;;;;;27.13;19.50;;;;;;;2.26;100.00;102126.34;694650;28;1527;-65
2023/02/15 00:03:10;;;;;;;26.67;19.35;;;;;;;2.26;100.00;102118.59;695534;28;1403;-65
2023/02/15 00:03:30;;;;;;;28.17;19.97;;;;;;;2.23;100.00;102111.63;695468;28;1401;-64
2023/02/15 00:03:51;;;;;;;29.07;20.00;;;;;;;2.19;100.00;102120.88;694102;28;4365;-64
2023/02/15 00:04:17;;;;;;;28.33;19.85;;;;;;;2.18;100.00;102115.63;694565;28;994;-65
2023/02/15 00:04:46;;;;;;;29.17;20.25;;;;;;;2.17;100.00;102119.00;694591;28;1222;-64
2023/02/15 00:05:07;;;;;;;29.55;20.13;;;;;;;2.11;100.00;102118.72;695347;28;1376;-65
2023/02/15 00:05:30;;;;;;;29.88;19.77;;;;;;;2.09;100.00;102115.13;695018;28;1249;-65
2023/02/15 00:05:50;;;;;;;30.05;20.05;;;;;;;2.06;100.00;102117.56;691422;28;2163;-66
2023/02/15 00:06:11;;;;;;;27.37;19.77;;;;;;;2.06;100.00;102117.56;694868;28;1365;-65
2023/02/15 00:06:32;;;;;;;27.93;19.83;;;;;;;2.07;100.00;102114.19;695302;28;1328;-65
2023/02/15 00:06:52;;;;;;;27.80;19.75;;;;;;;2.06;100.00;102120.16;694254;28;4552;-65
2023/02/15 00:07:17;;;;;;;28.58;19.75;;;;;;;2.09;100.00;102117.72;693930;28;1369;-64
2023/02/15 00:07:38;;;;;;;28.17;19.75;;;;;;;2.13;100.00;102118.00;694722;28;1392;-65
2023/02/15 00:07:58;;;;;;;27.95;19.55;;;;;;;2.07;100.00;102117.66;693602;28;1361;-65
2023/02/15 00:08:18;;;;;;;27.23;19.13;;;;;;;2.04;100.00;102113.19;695974;28;1197;-64
2023/02/15 00:08:39;;;;;;;27.83;19.13;;;;;;;2.04;100.00;102109.75;694922;28;970;-63
2023/02/15 00:09:00;;;;;;;27.70;19.48;;;;;;;2.02;100.00;102108.75;695783;28;1352;-65
2023/02/15 00:09:20;;;;;;;28.58;19.58;;;;;;;1.99;100.00;102109.47;696077;28;1161;-65
2023/02/15 00:09:41;;;;;;;27.10;19.47;;;;;;;1.97;100.00;102111.09;694814;28;4548;-65
2023/02/15 00:10:01;;;;;;;27.65;19.38;;;;;;;1.93;100.00;102106.59;695217;28;1301;-65
2023/02/15 00:10:23;;;;;;;28.25;19.63;;;;;;;1.94;100.00;102107.47;696671;28;1390;-65
2023/02/15 00:10:43;;;;;;;28.20;20.30;;;;;;;1.92;100.00;102106.50;695882;28;1289;-65
2023/02/15 00:11:12;;;;;;;28.08;19.70;;;;;;;1.92;100.00;102104.81;698323;28;1304;-65
2023/02/15 00:11:51;;;;;;;28.38;19.35;;;;;;;1.91;100.00;102105.63;696851;28;1561;-64
2023/02/15 00:12:12;;;;;;;28.35;19.42;;;;;;;1.90;100.00;102108.09;696912;28;1515;-65
2023/02/15 00:12:32;;;;;;;28.25;19.17;;;;;;;1.89;100.00;102102.06;697896;28;1383;-65
2023/02/15 00:12:53;;;;;;;29.67;19.37;;;;;;;1.90;100.00;102106.44;694993;28;4409;-64
2023/02/15 00:13:13;;;;;;;28.75;19.83;;;;;;;1.87;100.00;102112.31;694977;28;1661;-66
2023/02/15 00:13:35;;;;;;;27.60;19.50;;;;;;;1.87;100.00;102103.69;692749;28;1554;-65
2023/02/15 00:13:58;;;;;;;29.98;20.25;;;;;;;1.88;100.00;102102.88;692398;28;1977;-65
2023/02/15 00:14:23;;;;;;;27.95;19.80;;;;;;;1.89;100.00;102099.50;692151;28;2252;-65
2023/02/15 00:14:44;;;;;;;27.58;19.20;;;;;;;1.89;100.00;102111.50;693539;28;1392;-65
2023/02/15 00:15:04;;;;;;;27.90;19.27;;;;;;;1.89;100.00;102107.22;691108;28;1617;-65
2023/02/15 00:15:25;;;;;;;28.83;20.15;;;;;;;1.89;100.00;102101.19;694067;28;1210;-62
2023/02/15 00:15:46;;;;;;;28.42;19.60;;;;;;;1.92;100.00;102101.34;694291;28;4461;-65
2023/02/15 00:16:08;;;;;;;29.33;19.63;;;;;;;1.94;100.00;102103.22;695316;28;1416;-65
2023/02/15 00:16:29;;;;;;;29.10;19.95;;;;;;;1.95;100.00;102107.56;694360;28;1305;-64
2023/02/15 00:16:52;;;;;;;28.02;19.90;;;;;;;1.95;100.00;102109.25;695522;28;1301;-65
2023/02/15 00:17:13;;;;;;;31.05;20.30;;;;;;;1.95;100.00;102106.66;695782;28;1563;-64
2023/02/15 00:17:33;;;;;;;28.92;19.52;;;;;;;1.94;100.00;102105.78;694352;28;1613;-64
2023/02/15 00:17:54;;;;;;;30.83;19.90;;;;;;;1.94;100.00;102100.63;693546;28;1395;-65
2023/02/15 00:18:14;;;;;;;29.40;20.02;;;;;;;1.94;100.00;102105.78;694685;28;1311;-63
2023/02/15 00:18:34;;;;;;;29.23;20.23;;;;;;;1.95;100.00;102107.56;694162;28;1431;-64
2023/02/15 00:18:55;;;;;;;29.55;20.00;;;;;;;1.97;100.00;102100.78;693381;28;4509;-63
2023/02/15 00:19:17;;;;;;;30.40;20.87;;;;;;;2.01;100.00;102102.72;695218;28;1159;-64
2023/02/15 00:19:39;;;;;;;31.45;21.58;;;;;;;2.02;100.00;102104.50;694810;28;1386;-64
2023/02/15 00:20:00;;;;;;;31.58;21.73;;;;;;;2.03;100.00;102100.22;695214;28;1369;-64
2023/02/15 00:20:20;;;;;;;30.43;20.93;;;;;;;2.02;100.00;102103.59;692967;28;1150;-64
2023/02/15 00:20:40;;;;;;;29.90;21.52;;;;;;;2.02;100.00;102104.50;692523;28;1345;-64
2023/02/15 00:21:10;;;;;;;30.33;20.93;;;;;;;2.04;100.00;102102.88;690436;28;1350;-63
2023/02/15 00:21:33;;;;;;;30.23;21.40;;;;;;;2.03;100.00;102101.09;691908;28;1338;-65
2023/02/15 00:21:53;;;;;;;31.83;22.02;;;;;;;2.06;100.00;102099.50;691912;28;4317;-64
2023/02/15 00:22:14;;;;;;;32.13;22.60;;;;;;;2.07;100.00;102101.28;694893;28;912;-64
2023/02/15 00:22:34;;;;;;;32.53;22.42;;;;;;;2.07;100.00;102098.72;695397;28;1435;-64
2023/02/15 00:22:54;;;;;;;30.23;21.07;;;;;;;2.07;100.00;102106.44;694509;28;1306;-64
2023/02/15 00:23:15;;;;;;;29.47;21.07;;;;;;;2.06;100.00;102104.66;694897;28;3879;-64
2023/02/15 00:23:36;;;;;;;29.67;21.33;;;;;;;2.03;100.00;102103.69;692824;28;1397;-64
2023/02/15 00:24:01;;;;;;;29.27;21.88;;;;;;;2.06;100.00;102095.22;692933;28;1369;-65
2023/02/15 00:24:21;;;;;;;29.63;21.92;;;;;;;2.03;100.00;102100.22;692697;28;1296;-64
2023/02/15 00:24:42;;;;;;;30.02;21.23;;;;;;;2.07;100.00;102101.28;692661;28;4625;-65
2023/02/15 00:25:03;;;;;;;28.60;20.50;;;;;;;2.05;100.00;102093.47;693997;28;1332;-65
2023/02/15 00:25:23;;;;;;;29.08;20.95;;;;;;;2.02;100.00;102101.94;695235;28;1233;-64
2023/02/15 00:25:44;;;;;;;29.40;20.73;;;;;;;1.99;100.00;102104.31;695104;28;1333;-65
2023/02/15 00:26:12;;;;;;;29.08;20.55;;;;;;;1.99;100.00;102103.44;695427;28;1305;-65
2023/02/15 00:26:35;;;;;;;30.05;20.77;;;;;;;2.02;100.00;102107.09;693493;28;1373;-63
2023/02/15 00:26:56;;;;;;;30.02;21.25;;;;;;;2.02;100.00;102099.34;695336;28;1294;-64
2023/02/15 00:27:16;;;;;;;29.35;21.30;;;;;;;1.99;100.00;102101.75;695192;28;1171;-65
2023/02/15 00:27:36;;;;;;;30.97;21.30;;;;;;;2.00;100.00;102100.94;693811;28;1368;-64
2023/02/15 00:27:57;;;;;;;30.43;21.20;;;;;;;2.02;100.00;102101.94;689683;28;4403;-64
2023/02/15 00:28:17;;;;;;;30.00;20.73;;;;;;;2.03;100.00;102095.94;690580;28;1186;-64
2023/02/15 00:28:38;;;;;;;29.67;21.00;;;;;;;2.06;100.00;102100.38;687133;28;1201;-64
2023/02/15 00:28:58;;;;;;;28.85;20.80;;;;;;;2.04;100.00;102096.84;686851;28;1397;-65
2023/02/15 00:29:21;;;;;;;27.42;20.17;;;;;;;2.01;100.00;102100.16;688257;28;1191;-64
2023/02/15 00:29:41;;;;;;;29.27;20.80;;;;;;;2.00;100.00;102098.38;691736;28;1381;-64
2023/02/15 00:30:02;;;;;;;28.88;20.27;;;;;;;1.96;100.00;102098.13;694194;28;1326;-64
2023/02/15 00:30:23;;;;;;;27.92;19.58;;;;;;;1.94;100.00;102092.00;691953;28;1491;-64
2023/02/15 00:30:44;;;;;;;29.27;20.03;;;;;;;1.96;100.00;102098.13;693470;28;4282;-65
2023/02/15 00:31:05;;;;;;;31.10;21.07;;;;;;;1.96;100.00;102093.84;692997;28;1444;-64
2023/02/15 00:31:28;;;;;;;29.13;20.63;;;;;;;1.94;100.00;102089.41;693243;28;1193;-65
2023/02/15 00:31:49;;;;;;;28.55;20.77;;;;;;;1.86;100.00;102097.63;692910;28;1306;-64
2023/02/15 00:32:10;;;;;;;27.77;19.97;;;;;;;1.85;100.00;102092.41;693211;28;1349;-63
2023/02/15 00:32:31;;;;;;;28.35;20.27;;;;;;;1.83;100.00;102094.03;695813;28;1225;-64
2023/02/15 00:32:51;;;;;;;29.75;21.77;;;;;;;1.80;100.00;102091.25;694636;28;1388;-64
2023/02/15 00:33:11;;;;;;;30.47;21.50;;;;;;;1.80;100.00;102096.41;694442;28;1318;-64
2023/02/15 00:33:34;;;;;;;31.00;20.65;;;;;;;1.79;100.00;102100.69;695160;28;1154;-63
2023/02/15 00:33:55;;;;;;;28.88;20.45;;;;;;;1.80;100.00;102101.56;689373;28;4412;-64
2023/02/15 00:34:23;;;;;;;30.33;21.20;;;;;;;1.80;100.00;102101.56;689622;28;1223;-62
2023/02/15 00:34:43;;;;;;;30.98;21.50;;;;;;;1.79;100.00;102099.81;686333;28;1496;-63
2023/02/15 00:35:04;;;;;;;30.03;20.67;;;;;;;1.80;100.00;102101.56;686232;28;1311;-64
2023/02/15 00:35:24;;;;;;;30.50;21.30;;;;;;;1.79;100.00;102089.50;687188;28;1239;-64
2023/02/15 00:35:45;;;;;;;31.10;20.83;;;;;;;1.79;100.00;102092.06;690260;28;1340;-63
2023/02/15 00:36:08;;;;;;;31.30;21.80;;;;;;;1.79;100.00;102099.81;691801;28;1360;-64
2023/02/15 00:36:29;;;;;;;31.80;22.52;;;;;;;1.78;100.00;102098.91;690748;28;1199;-64
2023/02/15 00:36:49;;;;;;;31.20;21.98;;;;;;;1.78;100.00;102098.03;690623;28;5688;-63
2023/02/15 00:37:10;;;;;;;30.77;20.77;;;;;;;1.80;100.00;102096.41;688381;28;1790;-64
2023/02/15 00:37:30;;;;;;;30.37;20.63;;;;;;;1.79;100.00;102097.22;690659;28;1263;-63
2023/02/15 00:37:52;;;;;;;30.67;21.10;;;;;;;1.79;100.00;102100.69;689533;28;1269;-64
2023/02/15 00:38:12;;;;;;;32.67;21.30;;;;;;;1.79;100.00;102100.69;687269;28;1271;-63
2023/02/15 00:38:33;;;;;;;33.17;22.03;;;;;;;1.80;100.00;102091.25;687414;28;1246;-63
2023/02/15 00:38:54;;;;;;;32.38;22.02;;;;;;;1.80;100.00;102096.41;686804;28;1231;-63
2023/02/15 00:39:15;;;;;;;30.77;21.97;;;;;;;1.81;100.00;102098.19;687175;28;1318;-63
2023/02/15 00:39:35;;;;;;;31.77;21.73;;;;;;;1.81;100.00;102103.34;688535;28;1329;-66
2023/02/15 00:39:56;;;;;;;31.70;21.88;;;;;;;1.79;100.00;102103.25;692711;28;4401;-64
2023/02/15 00:40:16;;;;;;;30.27;22.07;;;;;;;1.79;100.00;102099.81;690137;28;1152;-65
2023/02/15 00:40:36;;;;;;;31.30;21.52;;;;;;;1.79;100.00;102105.84;690806;28;1305;-64
2023/02/15 00:40:58;;;;;;;30.90;22.00;;;;;;;1.79;100.00;102098.09;690776;28;1438;-65
2023/02/15 00:41:19;;;;;;;32.60;23.50;;;;;;;1.78;100.00;102103.19;692980;28;1239;-65
2023/02/15 00:41:39;;;;;;;34.63;25.15;;;;;;;1.79;100.00;102110.13;690498;28;1310;-64
2023/02/15 00:42:00;;;;;;;36.17;26.40;;;;;;;1.78;100.00;102103.19;687877;28;5235;-64
2023/02/15 00:42:20;;;;;;;34.03;24.73;;;;;;;1.79;100.00;102094.66;693046;28;1464;-65
2023/02/15 00:42:41;;;;;;;33.00;23.47;;;;;;;1.77;100.00;102099.69;692553;28;4354;-65
2023/02/15 00:43:02;;;;;;;35.60;24.05;;;;;;;1.75;100.00;102103.03;690639;28;1401;-64
2023/02/15 00:43:23;;;;;;;36.30;24.53;;;;;;;1.73;100.00;102104.63;690251;28;1453;-64
2023/02/15 00:43:43;;;;;;;36.38;24.88;;;;;;;1.70;100.00;102098.50;693199;28;1498;-65
2023/02/15 00:44:04;;;;;;;35.00;24.47;;;;;;;1.71;100.00;102099.38;693682;28;1666;-65
2023/02/15 00:44:24;;;;;;;32.88;23.35;;;;;;;1.70;100.00;102093.34;693036;28;1546;-64
2023/02/15 00:44:45;;;;;;;32.65;23.60;;;;;;;1.69;100.00;102098.44;693584;28;1663;-65
2023/02/15 00:45:05;;;;;;;35.33;23.97;;;;;;;1.68;100.00;102099.22;690443;28;1396;-65
2023/02/15 00:45:26;;;;;;;36.40;24.58;;;;;;;1.66;100.00;102104.31;691239;28;1512;-65
2023/02/15 00:45:46;;;;;;;35.47;24.87;;;;;;;1.66;100.00;102100.81;687277;28;4391;-63
2023/02/15 00:46:07;;;;;;;33.72;23.85;;;;;;;1.65;100.00;102099.94;688135;28;1604;-65
2023/02/15 00:46:27;;;;;;;33.77;23.90;;;;;;;1.66;100.00;102103.38;689988;28;1652;-65
2023/02/15 00:46:47;;;;;;;35.30;24.17;;;;;;;1.64;100.00;102100.72;689740;28;1652;-65
2023/02/15 00:47:08;;;;;;;34.57;24.13;;;;;;;1.66;100.00;102099.16;690575;28;1587;-64
2023/02/15 00:47:28;;;;;;;33.70;23.35;;;;;;;1.65;100.00;102097.34;690278;28;1508;-64
2023/02/15 00:47:48;;;;;;;32.47;23.03;;;;;;;1.63;100.00;102098.06;693239;28;1947;-64
2023/02/15 00:48:09;;;;;;;33.40;23.17;;;;;;;1.65;100.00;102106.81;695841;28;1543;-63
2023/02/15 00:48:30;;;;;;;35.03;24.30;;;;;;;1.62;100.00;102104.03;692960;28;1842;-64
2023/02/15 00:48:51;;;;;;;33.95;23.63;;;;;;;1.61;100.00;102102.28;692315;28;4693;-64
2023/02/15 00:49:11;;;;;;;32.30;23.00;;;;;;;1.60;100.00;102103.94;695947;28;1411;-65
2023/02/15 00:49:31;;;;;;;33.57;23.37;;;;;;;1.58;100.00;102105.56;693297;28;1381;-64
2023/02/15 00:49:52;;;;;;;33.58;22.70;;;;;;;1.55;100.00;102102.78;693075;28;1519;-64
2023/02/15 00:50:12;;;;;;;33.63;23.20;;;;;;;1.55;100.00;102101.91;693724;28;1619;-64
2023/02/15 00:50:32;;;;;;;32.05;23.23;;;;;;;1.55;100.00;102100.22;695356;28;1348;-64
2023/02/15 00:50:56;;;;;;;32.23;22.50;;;;;;;1.54;100.00;102103.63;694108;28;1534;-63
2023/02/15 00:51:17;;;;;;;31.38;21.70;;;;;;;1.53;100.00;102101.84;695491;28;1568;-65
2023/02/15 00:51:37;;;;;;;30.45;21.50;;;;;;;1.52;100.00;102100.06;695657;28;1491;-64
2023/02/15 00:51:57;;;;;;;33.10;23.23;;;;;;;1.48;100.00;102101.59;694643;28;4339;-64
2023/02/15 00:52:18;;;;;;;32.13;22.07;;;;;;;1.47;100.00;102098.94;695147;28;1376;-65
2023/02/15 00:52:38;;;;;;;33.17;22.90;;;;;;;1.47;100.00;102097.22;695364;28;1491;-64
2023/02/15 00:52:58;;;;;;;32.40;22.33;;;;;;;1.48;100.00;102098.09;695760;28;1364;-64
2023/02/15 00:53:20;;;;;;;30.17;21.83;;;;;;;1.52;100.00;102100.06;695470;28;1381;-64
2023/02/15 00:53:41;;;;;;;29.42;21.58;;;;;;;1.52;100.00;102100.06;693862;28;1918;-63
2023/02/15 00:54:01;;;;;;;30.43;21.70;;;;;;;1.50;100.00;102092.25;695579;28;1412;-64
2023/02/15 00:54:23;;;;;;;32.35;22.35;;;;;;;1.47;100.00;102097.22;697303;28;1530;-64
2023/02/15 00:54:44;;;;;;;32.00;22.60;;;;;;;1.44;100.00;102101.31;695051;28;4397;-65
2023/02/15 00:55:04;;;;;;;31.67;21.93;;;;;;;1.44;100.00;102096.16;693419;28;1491;-62
2023/02/15 00:55:25;;;;;;;31.27;21.85;;;;;;;1.43;100.00;102099.56;690933;28;1503;-64
2023/02/15 00:55:46;;;;;;;31.60;21.80;;;;;;;1.42;100.00;102098.66;690548;28;1397;-64
2023/02/15 00:56:06;;;;;;;31.13;21.85;;;;;;;1.41;100.00;102102.03;690022;28;1539;-65
2023/02/15 00:56:28;;;;;;;31.23;21.77;;;;;;;1.41;100.00;102096.00;688120;28;1536;-64
2023/02/15 00:56:48;;;;;;;30.55;21.83;;;;;;;1.39;100.00;102090.78;689598;28;1606;-64
2023/02/15 00:57:09;;;;;;;31.57;21.77;;;;;;;1.41;100.00;102103.72;690461;28;1642;-64
2023/02/15 00:57:29;;;;;;;33.00;22.23;;;;;;;1.41;100.00;102096.88;690113;28;1365;-60
2023/02/15 00:57:50;;;;;;;31.10;22.17;;;;;;;1.42;100.00;102095.22;692886;28;4512;-64
2023/02/15 00:58:11;;;;;;;31.35;22.30;;;;;;;1.40;100.00;102094.22;693392;28;1216;-65
2023/02/15 00:58:32;;;;;;;31.73;21.25;;;;;;;1.36;100.00;102099.22;692568;28;1394;-64
2023/02/15 00:58:52;;;;;;;31.73;21.57;;;;;;;1.36;100.00;102088.91;691043;28;1481;-64
2023/02/15 00:59:13;;;;;;;30.38;21.42;;;;;;;1.36;100.00;102094.06;692318;28;1460;-65
2023/02/15 00:59:33;;;;;;;31.77;21.23;;;;;;;1.36;100.00;102095.75;690244;28;1231;-64
2023/02/15 00:59:53;;;;;;;29.65;19.98;;;;;;;1.35;100.00;102091.41;687255;28;1328;-64
2023/02/15 01:00:14;;;;;;;30.63;20.77;;;;;;;1.35;100.00;102089.69;687415;28;1492;-64
2023/02/15 01:00:34;;;;;;;31.63;20.88;;;;;;;1.36;100.00;102095.75;692693;28;1416;-64
2023/02/15 01:01:01;;;;;;;31.77;21.73;;;;;;;1.33;100.00;102082.69;694068;28;4298;-64
2023/02/15 01:01:23;;;;;;;32.85;21.10;;;;;;;1.30;100.00;102088.56;695353;28;1271;-65
2023/02/15 01:01:45;;;;;;;31.33;21.85;;;;;;;1.32;100.00;102091.25;694198;28;1459;-64
2023/02/15 01:02:06;;;;;;;31.10;21.05;;;;;;;1.33;100.00;102090.41;693655;28;1409;-63
2023/02/15 01:02:26;;;;;;;31.27;20.87;;;;;;;1.35;100.00;102086.25;696820;28;1373;-65
2023/02/15 01:02:47;;;;;;;31.03;20.73;;;;;;;1.38;100.00;102088.97;698357;28;1530;-62
2023/02/15 01:03:09;;;;;;;30.27;20.98;;;;;;;1.36;100.00;102086.31;696158;28;1527;-64
2023/02/15 01:03:30;;;;;;;31.10;21.23;;;;;;;1.36;100.00;102093.19;696042;28;1192;-64
2023/02/15 01:03:51;;;;;;;30.42;20.77;;;;;;;1.32;100.00;102089.53;694624;28;4528;-64
2023/02/15 01:04:11;;;;;;;30.87;20.73;;;;;;;1.31;100.00;102089.44;694804;28;1014;-65
2023/02/15 01:04:31;;;;;;;31.63;21.05;;;;;;;1.30;100.00;102088.56;696057;28;960;-64
2023/02/15 01:04:52;;;;;;;30.53;20.53;;;;;;;1.29;100.00;102088.50;695785;28;1137;-64
2023/02/15 01:05:13;;;;;;;29.58;20.30;;;;;;;1.28;100.00;102092.75;694895;28;1104;-65
2023/02/15 01:05:33;;;;;;;30.57;21.07;;;;;;;1.28;100.00;102086.72;696168;28;852;-64
2023/02/15 01:05:53;;;;;;;30.55;21.40;;;;;;;1.25;100.00;102084.84;695301;28;833;-65
2023/02/15 01:06:15;;;;;;;31.30;22.40;;;;;;;1.24;100.00;102083.06;698353;28;853;-65
2023/02/15 01:06:37;;;;;;;31.63;21.45;;;;;;;1.24;100.00;102083.06;697993;28;1375;-64
2023/02/15 01:06:57;;;;;;;30.95;21.23;;;;;;;1.24;100.00;102088.22;697243;28;4340;-64
2023/02/15 01:07:17;;;;;;;29.77;20.40;;;;;;;1.21;100.00;102082.03;695561;28;1080;-64
2023/02/15 01:07:38;;;;;;;28.48;19.50;;;;;;;1.20;100.00;102088.84;691821;28;1273;-64
2023/02/15 01:07:59;;;;;;;28.43;20.00;;;;;;;1.21;100.00;102085.47;691913;28;987;-65
2023/02/15 01:08:19;;;;;;;29.25;20.17;;;;;;;1.21;100.00;102090.63;692256;28;1218;-64
2023/02/15 01:08:40;;;;;;;28.73;20.35;;;;;;;1.19;100.00;102084.47;693011;28;972;-64
2023/02/15 01:09:02;;;;;;;29.85;20.27;;;;;;;1.17;100.00;102083.53;692552;28;860;-65
2023/02/15 01:09:23;;;;;;;29.63;20.23;;;;;;;1.15;100.00;102088.59;692044;28;1094;-64
2023/02/15 01:09:44;;;;;;;30.17;20.37;;;;;;;1.17;100.00;102091.25;692925;28;4510;-64
2023/02/15 01:10:06;;;;;;;30.17;20.87;;;;;;;1.17;100.00;102088.69;693839;28;1242;-64
2023/02/15 01:10:28;;;;;;;30.73;20.92;;;;;;;1.17;100.00;102086.09;692384;28;873;-64
2023/02/15 01:10:49;;;;;;;31.48;20.85;;;;;;;1.18;100.00;102082.72;690685;28;1361;-63
2023/02/15 01:11:13;;;;;;;29.77;20.38;;;;;;;1.18;100.00;102088.75;688923;28;888;-64
2023/02/15 01:11:34;;;;;;;29.58;19.98;;;;;;;1.20;100.00;102088.84;690732;28;1102;-63
2023/02/15 01:11:54;;;;;;;30.70;20.65;;;;;;;1.21;100.00;102089.75;690630;28;919;-64
2023/02/15 01:12:15;;;;;;;33.07;21.70;;;;;;;1.21;100.00;102093.19;687796;28;1016;-64
2023/02/15 01:12:35;;;;;;;33.88;22.17;;;;;;;1.20;100.00;102083.69;689019;28;1547;-64
2023/02/15 01:12:56;;;;;;;32.70;22.07;;;;;;;1.22;100.00;102088.94;691493;28;4740;-65
2023/02/15 01:13:17;;;;;;;32.60;21.92;;;;;;;1.18;100.00;102085.31;691814;28;1164;-64
2023/02/15 01:13:41;;;;;;;32.03;21.60;;;;;;;1.15;100.00;102083.44;691364;28;1165;-64
2023/02/15 01:14:03;;;;;;;34.72;22.80;;;;;;;1.14;100.00;102085.94;691115;28;1564;-64
2023/02/15 01:14:23;;;;;;;34.25;22.98;;;;;;;1.16;100.00;102084.31;693056;28;1524;-64
2023/02/15 01:14:43;;;;;;;34.15;22.45;;;;;;;1.16;100.00;102086.91;694700;28;1484;-64
2023/02/15 01:15:04;;;;;;;31.20;21.43;;;;;;;1.17;100.00;102078.38;695364;28;1683;-64
2023/02/15 01:15:24;;;;;;;29.55;20.45;;;;;;;1.16;100.00;102084.31;696713;28;1606;-64
2023/02/15 01:15:53;;;;;;;30.10;21.27;;;;;;;1.16;100.00;102084.31;693039;28;4398;-64
2023/02/15 01:16:14;;;;;;;29.90;21.52;;;;;;;1.13;100.00;102081.56;694267;28;1346;-64
2023/02/15 01:16:36;;;;;;;31.83;21.75;;;;;;;1.12;100.00;102082.38;694460;28;1435;-64
2023/02/15 01:16:56;;;;;;;30.57;21.23;;;;;;;1.12;100.00;102091.00;692838;28;1492;-64
2023/02/15 01:17:17;;;;;;;30.90;22.53;;;;;;;1.11;100.00;102085.75;690872;28;1318;-65
2023/02/15 01:17:37;;;;;;;32.55;22.65;;;;;;;1.13;100.00;102085.03;689123;28;1378;-63
2023/02/15 01:17:57;;;;;;;34.13;22.70;;;;;;;1.13;100.00;102086.72;688173;28;1295;-64
2023/02/15 01:18:18;;;;;;;32.72;21.92;;;;;;;1.15;100.00;102079.97;688363;28;1370;-65
2023/02/15 01:18:38;;;;;;;31.03;21.07;;;;;;;1.15;100.00;102088.59;689918;28;4281;-64
2023/02/15 01:18:59;;;;;;;29.50;21.42;;;;;;;1.14;100.00;102086.81;690590;28;947;-64
2023/02/15 01:19:19;;;;;;;30.07;21.47;;;;;;;1.14;100.00;102086.81;693168;28;3830;-64
2023/02/15 01:19:39;;;;;;;31.67;21.65;;;;;;;1.15;100.00;102087.69;695020;28;878;-64
2023/02/15 01:20:00;;;;;;;30.70;21.30;;;;;;;1.13;100.00;102085.03;696086;28;1310;-64
2023/02/15 01:20:26;;;;;;;33.63;22.00;;;;;;;1.12;100.00;102087.53;697817;28;1158;-65
2023/02/15 01:20:47;;;;;;;32.97;22.17;;;;;;;1.10;100.00;102089.13;695358;28;963;-64
2023/02/15 01:21:14;;;;;;;32.97;21.60;;;;;;;1.07;100.00;102083.81;695933;28;1391;-64
2023/02/15 01:21:36;;;;;;;32.72;21.67;;;;;;;1.05;100.00;102086.28;692617;28;1491;-64
2023/02/15 01:21:57;;;;;;;33.13;22.33;;;;;;;1.04;100.00;102079.38;692710;28;4566;-65
2023/02/15 01:22:18;;;;;;;32.50;21.67;;;;;;;1.05;100.00;102085.41;694992;28;915;-64
2023/02/15 01:22:39;;;;;;;32.50;21.98;;;;;;;1.05;100.00;102085.41;696321;28;910;-64
2023/02/15 01:22:59;;;;;;;33.07;22.20;;;;;;;1.05;100.00;102080.25;695791;28;1247;-65
2023/02/15 01:23:20;;;;;;;32.97;21.97;;;;;;;1.07;100.00;102083.81;692996;28;1288;-64
2023/02/15 01:23:42;;;;;;;32.00;21.90;;;;;;;1.05;100.00;102077.69;693453;28;912;-64
2023/02/15 01:24:02;;;;;;;31.25;21.90;;;;;;;1.06;100.00;102084.63;693509;28;943;-63
2023/02/15 01:24:22;;;;;;;30.75;21.30;;;;;;;1.08;100.00;102086.47;690821;28;1239;-64
2023/02/15 01:24:43;;;;;;;34.07;22.50;;;;;;;1.12;100.00;102083.28;690118;28;4371;-64
2023/02/15 01:25:04;;;;;;;32.40;22.10;;;;;;;1.20;100.00;102083.69;690336;28;1273;-64
2023/02/15 01:25:25;;;;;;;31.25;21.67;;;;;;;1.29;100.00;102088.50;690424;28;1354;-65
2023/02/15 01:25:45;;;;;;;32.42;21.80;;;;;;;1.30;100.00;102086.00;690861;28;908;-64
2023/02/15 01:26:05;;;;;;;31.47;21.33;;;;;;;1.26;100.00;102088.28;690016;28;2009;-62
2023/02/15 01:26:26;;;;;;;32.93;21.43;;;;;;;1.22;100.00;102083.78;693682;28;1061;-64
2023/02/15 01:26:47;;;;;;;32.07;21.60;;;;;;;1.20;100.00;102086.25;693394;28;1424;-64
2023/02/15 01:27:07;;;;;;;30.83;21.23;;;;;;;1.18;100.00;102083.59;693108;28;1011;-64
2023/02/15 01:27:30;;;;;;;31.83;21.63;;;;;;;1.19;100.00;102084.47;693183;28;880;-64
2023/02/15 01:27:50;;;;;;;31.63;21.80;;;;;;;1.18;100.00;102081.03;693197;28;4500;-64
2023/02/15 01:28:11;;;;;;;32.00;21.02;;;;;;;1.16;100.00;102081.75;696314;28;811;-64
2023/02/15 01:28:33;;;;;;;31.23;20.83;;;;;;;1.17;100.00;102081.81;693371;28;1247;-64
2023/02/15 01:28:53;;;;;;;32.00;21.93;;;;;;;1.17;100.00;102080.94;690679;28;1291;-64
2023/02/15 01:29:14;;;;;;;31.02;21.48;;;;;;;1.23;100.00;102082.97;693029;28;1182;-64
2023/02/15 01:29:34;;;;;;;29.67;20.67;;;;;;;1.22;100.00;102087.25;691099;28;1716;-64
2023/02/15 01:29:54;;;;;;;28.80;20.05;;;;;;;1.20;100.00;102075.97;692645;28;1476;-64
2023/02/15 01:30:17;;;;;;;30.05;20.95;;;;;;;1.21;100.00;102080.31;691668;28;1401;-63
2023/02/15 01:30:37;;;;;;;29.58;20.98;;;;;;;1.20;100.00;102078.53;691553;28;846;-64
2023/02/15 01:30:58;;;;;;;29.93;21.03;;;;;;;1.17;100.00;102073.22;693172;28;4272;-64
2023/02/15 01:31:20;;;;;;;31.60;21.17;;;;;;;1.16;100.00;102074.00;692919;28;2002;-64
2023/02/15 01:31:41;;;;;;;32.67;21.27;;;;;;;1.17;100.00;102075.81;693014;28;1223;-64
2023/02/15 01:32:01;;;;;;;31.27;20.93;;;;;;;1.17;100.00;102075.81;692100;28;1393;-64
2023/02/15 01:32:22;;;;;;;30.05;21.05;;;;;;;1.22;100.00;102082.09;689722;28;1663;-63
2023/02/15 01:32:43;;;;;;;28.97;20.63;;;;;;;1.20;100.00;102075.97;690004;28;1755;-63
2023/02/15 01:33:03;;;;;;;29.80;20.73;;;;;;;1.20;100.00;102070.81;688337;28;1389;-64
2023/02/15 01:33:25;;;;;;;30.13;20.77;;;;;;;1.20;100.00;102073.38;684339;28;1628;-65
2023/02/15 01:33:47;;;;;;;32.63;21.80;;;;;;;1.19;100.00;102079.34;686548;28;4454;-64
2023/02/15 01:34:07;;;;;;;34.42;22.65;;;;;;;1.18;100.00;102075.00;684557;28;1425;-64
2023/02/15 01:34:29;;;;;;;32.17;22.10;;;;;;;1.15;100.00;102077.38;684934;28;1137;-64
2023/02/15 01:34:51;;;;;;;31.92;21.58;;;;;;;1.15;100.00;102083.44;690274;28;1449;-65
2023/02/15 01:35:11;;;;;;;31.23;21.33;;;;;;;1.15;100.00;102074.81;688022;28;1124;-65
2023/02/15 01:35:32;;;;;;;31.53;21.63;;;;;;;1.13;100.00;102073.84;689791;28;1428;-64
2023/02/15 01:35:58;;;;;;;33.13;21.27;;;;;;;1.14;100.00;102070.47;688044;28;1306;-63
2023/02/15 01:36:19;;;;;;;31.55;20.90;;;;;;;1.15;100.00;102072.22;691213;28;947;-64
2023/02/15 01:36:39;;;;;;;33.90;22.40;;;;;;;1.16;100.00;102074.00;691984;28;4433;-64
2023/02/15 01:37:00;;;;;;;33.72;22.17;;;;;;;1.13;100.00;102068.69;692378;28;1401;-64
2023/02/15 01:37:20;;;;;;;30.97;22.27;;;;;;;1.12;100.00;102072.97;695582;28;1329;-64
2023/02/15 01:37:41;;;;;;;33.72;22.70;;;;;;;1.13;100.00;102068.69;694834;28;1538;-63
2023/02/15 01:38:01;;;;;;;35.57;23.07;;;;;;;1.13;100.00;102072.16;695565;28;1436;-64
2023/02/15 01:38:21;;;;;;;34.23;22.80;;;;;;;1.14;100.00;102073.06;696628;28;1369;-64
2023/02/15 01:38:41;;;;;;;35.35;22.70;;;;;;;1.13;100.00;102074.72;696061;28;1468;-63
2023/02/15 01:39:02;;;;;;;34.67;22.90;;;;;;;1.15;100.00;102072.22;696070;28;1439;-70